Time;durP1;ratioP1;P1;durP2;ratioP2;P2;SDS_P1;SDS_P2;PMS_P1;PMS_P2;Temp;Humidity;BMP_temperature;BMP_pressure;BME280_temperature;BME280_humidity;BME280_pressure;Samples;Min_cycle;Max_cycle;Signal;HPM_P1;HPM_P2
2024/03/22 00:00:03;;;;;;;28.30;14.60;;;;;;;0.68;100.00;101165.34;105988;1259;75450;-83
2024/03/22 00:02:38;;;;;;;28.90;14.70;;;;;;;0.69;100.00;101164.34;105983;1258;68419;-78
2024/03/22 00:05:06;;;;;;;28.80;14.40;;;;;;;0.67;100.00;101163.52;105997;1254;72427;-82
2024/03/22 00:07:33;;;;;;;24.90;14.80;;;;;;;0.66;100.00;101162.88;105957;1259;62102;-77
2024/03/22 00:10:01;;;;;;;32.20;16.10;;;;;;;0.66;100.00;101163.30;106080;1254;62070;-83
2024/03/22 00:12:29;;;;;;;28.80;14.90;;;;;;;0.63;100.00;101161.21;106145;1254;74249;-77
2024/03/22 00:14:56;;;;;;;25.70;14.60;;;;;;;0.62;100.00;101158.60;105887;1257;67731;-83
2024/03/22 00:17:24;;;;;;;25.10;13.30;;;;;;;0.58;100.00;101158.15;105939;1254;71791;-77
2024/03/22 00:19:51;;;;;;;28.80;15.50;;;;;;;0.56;100.00;101161.81;107173;1254;62137;-78
2024/03/22 00:22:19;;;;;;;26.20;13.50;;;;;;;0.52;100.00;101162.86;105891;1254;62262;-84
2024/03/22 00:24:47;;;;;;;23.00;13.20;;;;;;;0.49;100.00;101160.77;105988;1254;75451;-83
2024/03/22 00:27:14;;;;;;;27.50;14.10;;;;;;;0.50;100.00;101156.57;105969;1254;68367;-83
2024/03/22 00:29:42;;;;;;;30.50;14.50;;;;;;;0.46;100.00;101157.98;106246;1259;70397;-77
2024/03/22 00:32:09;;;;;;;30.80;17.60;;;;;;;0.46;100.00;101149.88;106012;1257;61983;-78
2024/03/22 00:34:37;;;;;;;37.50;19.00;;;;;;;0.46;100.00;101151.11;106391;1256;62038;-78
2024/03/22 00:37:05;;;;;;;33.80;18.50;;;;;;;0.46;100.00;101145.44;105898;1254;75381;-84
2024/03/22 00:39:32;;;;;;;31.30;16.50;;;;;;;0.45;100.00;101143.21;105912;1253;68479;-84
2024/03/22 00:42:00;;;;;;;34.70;16.40;;;;;;;0.47;100.00;101145.11;106192;1253;72370;-78
2024/03/22 00:44:27;;;;;;;30.90;16.40;;;;;;;0.47;100.00;101142.15;106089;1257;62176;-78
2024/03/22 00:46:55;;;;;;;28.20;14.10;;;;;;;0.48;100.00;101143.89;106210;1254;62062;-78
2024/03/22 00:49:23;;;;;;;28.40;14.20;;;;;;;0.46;100.00;101145.02;106638;1256;75490;-81
2024/03/22 00:51:50;;;;;;;26.50;14.00;;;;;;;0.48;100.00;101146.04;107017;1257;67127;-83
2024/03/22 00:54:19;;;;;;;29.30;13.20;;;;;;;0.49;100.00;101146.05;106148;1254;74886;-78
2024/03/22 00:56:47;;;;;;;26.00;14.50;;;;;;;0.48;100.00;101146.41;106063;1254;62169;-78
2024/03/22 00:59:14;;;;;;;24.80;13.60;;;;;;;0.47;100.00;101142.75;106159;1254;61939;-83
2024/03/22 01:01:42;;;;;;;26.00;14.20;;;;;;;0.46;100.00;101144.83;105993;1258;75415;-83
2024/03/22 01:04:10;;;;;;;30.00;14.40;;;;;;;0.45;100.00;101145.57;106007;1258;67458;-83
2024/03/22 01:06:39;;;;;;;29.30;15.10;;;;;;;0.42;100.00;101144.05;105896;1254;72738;-78
2024/03/22 01:09:07;;;;;;;28.80;14.10;;;;;;;0.38;100.00;101141.50;105959;1257;62060;-82
2024/03/22 01:11:35;;;;;;;31.50;15.30;;;;;;;0.32;100.00;101139.44;105952;1254;62129;-78
2024/03/22 01:14:02;;;;;;;29.30;15.20;;;;;;;0.29;100.00;101140.65;105896;1258;75464;-78
2024/03/22 01:16:30;;;;;;;32.20;17.00;;;;;;;0.28;100.00;101140.29;105969;1253;68466;-83
2024/03/22 01:18:57;;;;;;;30.70;16.40;;;;;;;0.26;100.00;101140.40;105873;1258;71794;-83
2024/03/22 01:21:25;;;;;;;34.70;17.70;;;;;;;0.24;100.00;101142.38;106018;1254;62098;-77
2024/03/22 01:23:53;;;;;;;31.40;16.20;;;;;;;0.22;100.00;101141.61;105998;1253;62056;-78
2024/03/22 01:26:20;;;;;;;33.10;17.30;;;;;;;0.19;100.00;101138.05;106024;1258;75470;-78
2024/03/22 01:28:48;;;;;;;34.50;16.70;;;;;;;0.18;100.00;101138.73;105984;1258;67238;-84
2024/03/22 01:31:16;;;;;;;37.80;18.00;;;;;;;0.18;100.00;101137.83;106049;1254;70854;-78
2024/03/22 01:33:44;;;;;;;34.80;19.30;;;;;;;0.17;100.00;101129.84;105882;1258;62041;-78
2024/03/22 01:36:11;;;;;;;36.70;18.30;;;;;;;0.17;100.00;101138.77;105921;1258;62140;-83
2024/03/22 01:38:39;;;;;;;33.60;19.20;;;;;;;0.16;100.00;101134.30;107724;1253;74180;-83
2024/03/22 01:41:06;;;;;;;33.20;18.70;;;;;;;0.14;100.00;101131.51;106318;1256;67096;-83
2024/03/22 01:43:34;;;;;;;35.70;19.00;;;;;;;0.14;100.00;101135.85;106113;1256;73144;-83
2024/03/22 01:46:01;;;;;;;34.90;18.90;;;;;;;0.15;100.00;101135.98;106731;1254;62156;-78
2024/03/22 01:48:29;;;;;;;33.00;18.50;;;;;;;0.14;100.00;101135.06;106217;1259;62008;-78
2024/03/22 01:50:57;;;;;;;38.80;19.40;;;;;;;0.11;100.00;101136.20;106054;1258;76055;-77
2024/03/22 01:53:25;;;;;;;43.60;20.00;;;;;;;0.10;100.00;101135.96;106030;1256;67132;-77
2024/03/22 01:55:52;;;;;;;31.00;17.50;;;;;;;0.11;100.00;101135.78;105993;1254;73173;-83
2024/03/22 01:58:21;;;;;;;38.90;19.00;;;;;;;0.14;100.00;101135.61;105917;1257;62047;-77
2024/03/22 02:00:49;;;;;;;39.10;17.80;;;;;;;0.15;100.00;101136.16;106068;1254;62065;-77
2024/03/22 02:03:16;;;;;;;33.90;18.20;;;;;;;0.15;100.00;101134.38;105993;1254;74726;-83
2024/03/22 02:05:44;;;;;;;30.30;17.60;;;;;;;0.15;100.00;101137.77;106035;1258;68334;-83
2024/03/22 02:08:12;;;;;;;33.80;16.90;;;;;;;0.15;100.00;101135.45;106001;1254;71405;-83
2024/03/22 02:10:39;;;;;;;29.90;16.70;;;;;;;0.13;100.00;101132.98;105964;1256;62101;-84
2024/03/22 02:13:07;;;;;;;29.60;16.50;;;;;;;0.10;100.00;101131.14;105959;1253;62159;-77
2024/03/22 02:15:35;;;;;;;35.60;18.20;;;;;;;0.09;100.00;101132.54;106049;1254;74117;-78
2024/03/22 02:18:02;;;;;;;38.90;18.80;;;;;;;0.07;100.00;101129.27;105776;1259;269045;-78
2024/03/22 02:20:30;;;;;;;36.30;19.20;;;;;;;0.09;100.00;101129.30;108358;1254;72677;-78
2024/03/22 02:22:58;;;;;;;31.00;17.40;;;;;;;0.08;100.00;101126.04;107806;1254;62054;-83
2024/03/22 02:25:25;;;;;;;31.60;17.00;;;;;;;0.04;100.00;101122.95;106056;1254;62117;-78
2024/03/22 02:27:53;;;;;;;32.60;18.20;;;;;;;0.02;100.00;101129.21;106096;1254;74227;-83
2024/03/22 02:30:20;;;;;;;35.70;17.20;;;;;;;0.00;100.00;101129.81;106012;1254;67276;-78
2024/03/22 02:32:48;;;;;;;28.70;15.80;;;;;;;-0.03;100.00;101128.17;106015;1254;71060;-83
2024/03/22 02:35:16;;;;;;;41.10;18.40;;;;;;;-0.06;100.00;101132.13;106096;1259;62233;-77
2024/03/22 02:37:43;;;;;;;48.20;20.90;;;;;;;-0.10;100.00;101133.83;106018;1253;62028;-83
2024/03/22 02:40:12;;;;;;;40.30;22.30;;;;;;;-0.13;100.00;101136.88;106186;1254;74226;-77
2024/03/22 02:42:39;;;;;;;56.40;24.40;;;;;;;-0.15;100.00;101131.56;107142;1253;68582;-78
2024/03/22 02:45:08;;;;;;;44.50;20.70;;;;;;;-0.16;100.00;101134.98;105998;1254;72676;-78
2024/03/22 02:47:35;;;;;;;46.80;22.80;;;;;;;-0.14;100.00;101133.06;106237;1254;62127;-83
2024/03/22 02:50:03;;;;;;;47.20;23.00;;;;;;;-0.14;100.00;101136.46;106138;1256;62056;-79
2024/03/22 02:52:31;;;;;;;48.10;23.40;;;;;;;-0.15;100.00;101134.71;106262;1258;75576;-78
2024/03/22 02:55:01;;;;;;;39.70;19.80;;;;;;;-0.15;100.00;101131.68;106028;1254;68856;-83
2024/03/22 02:57:28;;;;;;;40.40;19.90;;;;;;;-0.17;100.00;101132.30;106084;1258;71653;-83
2024/03/22 02:59:56;;;;;;;35.60;19.10;;;;;;;-0.18;100.00;101133.86;105911;1259;61323;-77
2024/03/22 03:02:23;;;;;;;37.30;19.50;;;;;;;-0.20;100.00;101127.69;105964;1254;62194;-83
2024/03/22 03:04:51;;;;;;;35.80;18.50;;;;;;;-0.19;100.00;101124.76;105962;1256;75083;-78
2024/03/22 03:07:19;;;;;;;35.70;18.40;;;;;;;-0.20;100.00;101124.34;105863;1253;68413;-77
2024/03/22 03:09:46;;;;;;;37.20;19.60;;;;;;;-0.24;100.00;101121.90;106351;1253;71380;-78
2024/03/22 03:12:14;;;;;;;34.90;17.10;;;;;;;-0.28;100.00;101121.46;108132;1253;62173;-78
2024/03/22 03:14:41;;;;;;;34.10;17.80;;;;;;;-0.29;100.00;101124.09;106268;1253;62104;-82
2024/03/22 03:17:09;;;;;;;38.20;18.80;;;;;;;-0.28;100.00;101125.25;105937;1261;75709;-82
2024/03/22 03:19:37;;;;;;;35.20;18.40;;;;;;;-0.27;100.00;101127.38;105991;1259;68389;-77
2024/03/22 03:22:04;;;;;;;35.20;18.00;;;;;;;-0.28;100.00;101126.58;105921;1256;71784;-77
2024/03/22 03:24:32;;;;;;;30.90;17.60;;;;;;;-0.31;100.00;101130.67;106113;1257;62345;-77
2024/03/22 03:27:00;;;;;;;33.50;18.30;;;;;;;-0.40;100.00;101127.90;105811;1254;62143;-83
2024/03/22 03:29:27;;;;;;;38.20;19.40;;;;;;;-0.33;100.00;101131.67;105911;1254;75470;-82
2024/03/22 03:31:55;;;;;;;38.80;20.00;;;;;;;-0.29;100.00;101136.31;105852;1259;67726;-82
2024/03/22 03:34:22;;;;;;;33.40;17.20;;;;;;;-0.30;100.00;101140.35;106014;1259;71399;-82
2024/03/22 03:36:50;;;;;;;30.90;18.30;;;;;;;-0.32;100.00;101141.19;106457;1257;61993;-83
2024/03/22 03:39:18;;;;;;;36.20;19.30;;;;;;;-0.34;100.00;101148.38;106166;1259;62076;-83
2024/03/22 03:41:45;;;;;;;41.30;19.60;;;;;;;-0.35;100.00;101149.60;105975;1259;74228;-76
2024/03/22 03:44:13;;;;;;;32.10;18.00;;;;;;;-0.35;100.00;101149.59;105965;1256;68799;-76
2024/03/22 03:46:40;;;;;;;35.10;18.40;;;;;;;-0.33;100.00;101153.86;105991;1253;72671;-82
2024/03/22 03:49:08;;;;;;;36.80;18.80;;;;;;;-0.33;100.00;101151.93;105926;1257;62085;-82
2024/03/22 03:51:35;;;;;;;36.20;18.60;;;;;;;-0.35;100.00;101143.15;105790;1253;62191;-82
2024/03/22 03:54:03;;;;;;;34.40;18.60;;;;;;;-0.34;100.00;101146.80;105926;1258;75352;-84
2024/03/22 03:56:31;;;;;;;38.20;19.90;;;;;;;-0.33;100.00;101143.30;105982;1253;68423;-83
2024/03/22 03:58:59;;;;;;;33.10;17.00;;;;;;;-0.34;100.00;101146.30;105904;1259;72467;-77
2024/03/22 04:01:27;;;;;;;32.20;17.80;;;;;;;-0.34;100.00;101146.88;106085;1254;62181;-83
2024/03/22 04:03:54;;;;;;;35.50;19.20;;;;;;;-0.34;100.00;101140.93;105974;1254;62413;-77
2024/03/22 04:06:22;;;;;;;37.90;19.60;;;;;;;-0.33;100.00;101140.24;105927;1257;75783;-77
2024/03/22 04:08:50;;;;;;;32.20;17.70;;;;;;;-0.31;100.00;101142.36;105906;1254;68430;-76
2024/03/22 04:11:17;;;;;;;33.40;18.20;;;;;;;-0.31;100.00;101144.68;105910;1254;70397;-83
2024/03/22 04:13:45;;;;;;;33.30;17.50;;;;;;;-0.32;100.00;101143.76;106327;1254;62031;-83
2024/03/22 04:16:12;;;;;;;41.40;20.80;;;;;;;-0.35;100.00;101141.95;107808;1254;61165;-77
2024/03/22 04:18:40;;;;;;;35.30;18.10;;;;;;;-0.35;100.00;101139.64;105945;1255;74305;-83
2024/03/22 04:21:08;;;;;;;36.50;20.60;;;;;;;-0.32;100.00;101135.98;105995;1254;68393;-82
2024/03/22 04:23:36;;;;;;;39.00;19.70;;;;;;;-0.30;100.00;101135.23;106093;1258;73171;-76
2024/03/22 04:26:04;;;;;;;32.40;17.70;;;;;;;-0.27;100.00;101134.86;105969;1254;62085;-77
2024/03/22 04:28:31;;;;;;;36.60;19.70;;;;;;;-0.25;100.00;101133.80;105999;1259;62044;-83
2024/03/22 04:31:06;;;;;;;42.40;21.50;;;;;;;-0.20;100.00;101133.67;105897;1254;74231;-83
2024/03/22 04:33:33;;;;;;;37.50;20.40;;;;;;;-0.16;100.00;101134.38;106072;1258;68671;-83
2024/03/22 04:36:01;;;;;;;34.90;19.00;;;;;;;-0.09;100.00;101134.23;105901;1253;73641;-83
2024/03/22 04:38:29;;;;;;;33.80;19.50;;;;;;;-0.02;100.00;101133.26;105850;1254;62178;-77
2024/03/22 04:40:57;;;;;;;36.30;18.70;;;;;;;0.05;100.00;101133.77;105990;1254;62172;-77
2024/03/22 04:43:25;;;;;;;35.40;20.30;;;;;;;0.07;100.00;101130.61;106548;1253;73133;-83
2024/03/22 04:45:52;;;;;;;58.00;29.80;;;;;;;0.12;100.00;101126.70;107955;1253;68896;-79
2024/03/22 04:48:21;;;;;;;59.60;29.60;;;;;;;0.16;100.00;101128.91;107119;1254;71193;-83
2024/03/22 04:50:50;;;;;;;51.00;28.30;;;;;;;0.24;100.00;101130.42;106019;1254;62051;-83
2024/03/22 04:53:18;;;;;;;41.80;21.50;;;;;;;0.30;100.00;101128.78;106056;1258;61970;-78
2024/03/22 04:55:45;;;;;;;38.90;21.00;;;;;;;0.32;100.00;101131.14;105977;1257;74490;-78
2024/03/22 04:58:14;;;;;;;41.00;20.80;;;;;;;0.36;100.00;101135.45;106174;1259;68395;-84
2024/03/22 05:00:45;;;;;;;42.70;21.40;;;;;;;0.42;100.00;101139.02;106695;1256;72435;-78
2024/03/22 05:03:13;;;;;;;39.00;21.70;;;;;;;0.50;100.00;101136.63;106551;1259;62001;-79
2024/03/22 05:05:40;;;;;;;37.90;21.10;;;;;;;0.58;100.00;101138.21;106541;1254;62312;-84
2024/03/22 05:08:08;;;;;;;42.90;21.90;;;;;;;0.69;100.00;101133.57;106600;1259;75451;-78
2024/03/22 05:10:36;;;;;;;42.30;22.50;;;;;;;0.79;100.00;101137.10;106416;1257;68322;-78
2024/03/22 05:13:04;;;;;;;41.90;21.30;;;;;;;0.91;100.00;101142.25;106733;1254;71854;-78
2024/03/22 05:15:31;;;;;;;37.80;20.40;;;;;;;1.05;100.00;101144.23;107113;1255;61957;-79
2024/03/22 05:17:59;;;;;;;38.80;21.30;;;;;;;1.18;100.00;101150.59;106457;1259;60786;-85
2024/03/22 05:20:26;;;;;;;40.60;20.70;;;;;;;1.29;100.00;101147.29;106530;1260;75436;-84
2024/03/22 05:22:54;;;;;;;35.90;19.40;;;;;;;1.38;100.00;101149.39;106508;1261;67431;-83
2024/03/22 05:25:22;;;;;;;39.40;20.90;;;;;;;1.52;100.00;101151.19;106424;1254;71823;-84
2024/03/22 05:27:50;;;;;;;65.50;39.90;;;;;;;1.66;100.00;101155.11;106361;1254;62162;-78
2024/03/22 05:30:17;;;;;;;56.10;34.00;;;;;;;1.80;100.00;101154.90;106394;1257;61925;-78
2024/03/22 05:32:45;;;;;;;61.70;38.10;;;;;;;1.90;100.00;101156.04;106441;1258;75552;-78
2024/03/22 05:35:13;;;;;;;39.80;21.40;;;;;;;2.01;100.00;101154.19;106444;1254;68656;-84
2024/03/22 05:37:40;;;;;;;41.00;21.60;;;;;;;2.13;100.00;101158.02;106522;1259;72623;-78
2024/03/22 05:40:09;;;;;;;46.80;22.70;;;;;;;2.26;100.00;101154.66;106372;1259;62082;-78
2024/03/22 05:42:36;;;;;;;48.80;23.60;;;;;;;2.37;100.00;101156.36;106743;1258;62202;-78
2024/03/22 05:45:04;;;;;;;41.90;23.50;;;;;;;2.46;100.00;101154.45;107009;1259;74260;-78
2024/03/22 05:47:33;;;;;;;55.10;31.00;;;;;;;2.52;100.00;101149.73;106650;1254;68548;-78
2024/03/22 05:50:09;;;;;;;62.50;33.20;;;;;;;2.66;100.00;101153.72;106660;1254;72537;-77
2024/03/22 05:52:36;;;;;;;62.30;30.90;;;;;;;2.84;100.00;101155.48;106490;1256;62073;-77
2024/03/22 05:55:05;;;;;;;78.20;46.00;;;;;;;2.97;100.00;101159.80;106394;1259;62060;-77
2024/03/22 05:57:32;;;;;;;64.50;33.90;;;;;;;3.06;100.00;101161.73;106647;1254;76068;-83
2024/03/22 06:00:00;;;;;;;74.50;39.80;;;;;;;3.11;100.00;101161.05;106356;1259;67276;-83
2024/03/22 06:02:27;;;;;;;66.60;38.20;;;;;;;3.19;100.00;101163.86;106375;1259;71422;-84
2024/03/22 06:04:55;;;;;;;73.00;35.00;;;;;;;3.30;100.00;101167.27;106234;1260;62181;-84
2024/03/22 06:07:25;;;;;;;67.30;35.00;;;;;;;3.43;100.00;101169.45;106422;1252;62104;-84
2024/03/22 06:09:52;;;;;;;63.50;36.70;;;;;;;3.56;100.00;101166.23;107132;1254;75452;-84
2024/03/22 06:12:21;;;;;;;75.80;40.20;;;;;;;3.70;100.00;101167.54;106465;1258;67246;-84
2024/03/22 06:14:50;;;;;;;59.60;34.20;;;;;;;3.86;100.00;101164.33;106405;1254;71322;-84
2024/03/22 06:17:18;;;;;;;63.80;33.90;;;;;;;4.02;100.00;101169.02;106379;1258;62194;-83
2024/03/22 06:19:46;;;;;;;58.30;32.20;;;;;;;4.17;100.00;101163.66;106361;1255;62403;-83
2024/03/22 06:22:13;;;;;;;72.70;37.30;;;;;;;4.34;100.00;101161.08;106310;1254;75398;-83
2024/03/22 06:24:41;;;;;;;70.20;38.00;;;;;;;4.53;100.00;101156.41;106614;1259;67096;-84
2024/03/22 06:27:09;;;;;;;75.20;38.60;;;;;;;4.69;100.00;101154.77;105969;1257;74591;-84
2024/03/22 06:29:37;;;;;;;77.70;39.60;;;;;;;4.88;100.00;101157.13;106137;1259;62134;-77
2024/03/22 06:32:05;;;;;;;77.80;41.30;;;;;;;5.03;100.00;101153.20;105913;1257;62194;-83
2024/03/22 06:34:32;;;;;;;81.50;40.00;;;;;;;5.20;100.00;101150.73;106123;1257;74435;-84
2024/03/22 06:37:00;;;;;;;73.50;40.70;;;;;;;5.37;100.00;101153.31;106445;1254;70093;-83
2024/03/22 06:39:28;;;;;;;72.60;37.80;;;;;;;5.54;100.00;101154.38;105951;1259;73914;-82
2024/03/22 06:41:56;;;;;;;63.20;33.60;;;;;;;5.74;100.00;101154.29;105934;1260;64123;-82
2024/03/22 06:44:24;;;;;;;52.60;29.80;;;;;;;5.93;100.00;101155.77;105908;1255;62066;-84
2024/03/22 06:46:51;;;;;;;56.50;29.90;;;;;;;6.07;100.00;101151.79;105811;1257;74193;-83
2024/03/22 06:49:19;;;;;;;50.30;26.80;;;;;;;6.21;100.00;101154.17;106573;1254;70552;-83
2024/03/22 06:51:47;;;;;;;35.10;21.30;;;;;;;6.33;100.00;101157.56;106014;1258;71407;-76
2024/03/22 06:54:14;;;;;;;42.90;20.90;;;;;;;6.40;100.00;101155.02;105998;1254;62625;-76
2024/03/22 06:56:42;;;;;;;49.00;25.20;;;;;;;6.48;100.00;101158.15;105916;1260;62171;-76
2024/03/22 06:59:10;;;;;;;46.70;23.20;;;;;;;6.54;100.00;101157.09;106012;1257;74254;-76
2024/03/22 07:01:37;;;;;;;38.00;21.10;;;;;;;6.66;100.00;101159.98;106071;1254;68336;-76
2024/03/22 07:04:05;;;;;;;36.20;21.00;;;;;;;6.74;100.00;101157.90;106562;1257;71859;-82
2024/03/22 07:06:32;;;;;;;40.00;22.60;;;;;;;6.80;100.00;101160.80;105973;1260;62194;-81
2024/03/22 07:09:00;;;;;;;37.70;21.60;;;;;;;6.88;100.00;101153.27;105991;1254;62082;-82
2024/03/22 07:11:28;;;;;;;38.80;21.50;;;;;;;7.00;100.00;101153.45;109030;1257;75889;-83
2024/03/22 07:13:55;;;;;;;36.70;21.40;;;;;;;7.09;100.00;101150.94;106029;1258;69831;-77
2024/03/22 07:16:23;;;;;;;38.80;22.10;;;;;;;7.17;100.00;101148.98;105900;1260;74710;-76
2024/03/22 07:18:51;;;;;;;37.80;22.20;;;;;;;7.29;100.00;101144.30;105874;1258;62017;-83
2024/03/22 07:21:18;;;;;;;36.40;21.20;;;;;;;7.53;100.00;101143.85;107032;1259;62175;-77
2024/03/22 07:23:46;;;;;;;34.30;21.30;;;;;;;7.69;100.00;101143.88;106088;1259;75577;-76
2024/03/22 07:26:14;;;;;;;37.70;22.10;;;;;;;7.80;100.00;101138.48;106163;1255;70597;-83
2024/03/22 07:28:50;;;;;;;36.70;22.00;;;;;;;7.95;100.00;101138.32;105933;1264;71104;-83
2024/03/22 07:31:17;;;;;;;33.60;20.40;;;;;;;8.16;100.00;101140.64;105855;1259;62133;-83
2024/03/22 07:33:45;;;;;;;34.00;19.20;;;;;;;8.32;100.00;101138.13;105921;1260;62130;-83
2024/03/22 07:36:16;;;;;;;37.20;19.20;;;;;;;8.46;100.00;101143.52;106442;1256;74303;-83
2024/03/22 07:38:44;;;;;;;31.70;17.70;;;;;;;8.56;100.00;101140.19;106369;1260;69999;-76
2024/03/22 07:41:11;;;;;;;28.20;16.90;;;;;;;8.61;100.00;101136.92;106041;1260;75075;-76
2024/03/22 07:43:39;;;;;;;31.40;18.70;;;;;;;8.66;100.00;101140.15;105998;1255;62212;-81
2024/03/22 07:46:07;;;;;;;27.80;16.30;;;;;;;8.69;100.00;101136.44;106009;1261;61916;-82
2024/03/22 07:48:34;;;;;;;25.60;15.20;;;;;;;8.74;100.00;101135.25;105941;1264;74157;-82
2024/03/22 07:51:02;;;;;;;26.60;15.90;;;;;;;8.91;100.00;101132.48;105912;1254;69547;-76
2024/03/22 07:53:30;;;;;;;30.60;16.40;;;;;;;9.07;100.00;101129.02;105983;1254;75020;-81
2024/03/22 07:55:58;;;;;;;29.70;17.00;;;;;;;9.21;100.00;101132.30;106444;1258;62433;-76
2024/03/22 07:58:26;;;;;;;26.80;16.50;;;;;;;9.26;100.00;101122.98;106037;1258;61957;-82
2024/03/22 08:00:53;;;;;;;27.50;15.20;;;;;;;9.25;100.00;101121.00;106091;1254;76583;-76
2024/03/22 08:03:21;;;;;;;30.40;17.60;;;;;;;9.26;100.00;101121.89;105972;1254;70312;-82
2024/03/22 08:05:49;;;;;;;29.60;15.50;;;;;;;9.28;100.00;101124.36;105917;1257;74047;-81
2024/03/22 08:08:17;;;;;;;28.90;16.90;;;;;;;9.32;100.00;101124.73;105864;1260;62866;-76
2024/03/22 08:10:45;;;;;;;25.70;15.50;;;;;;;9.39;100.00;101127.44;105956;1255;62157;-76
2024/03/22 08:13:13;;;;;;;27.30;14.70;;;;;;;9.44;100.00;101125.27;105924;1258;77783;-81
2024/03/22 08:15:43;;;;;;;31.10;17.10;;;;;;;9.42;100.00;101124.15;105991;1258;69693;-82
2024/03/22 08:18:11;;;;;;;28.10;16.50;;;;;;;9.45;100.00;101123.04;105920;1254;75294;-82
2024/03/22 08:20:39;;;;;;;26.60;15.80;;;;;;;9.44;100.00;101118.94;105948;1254;63097;-82
2024/03/22 08:23:06;;;;;;;28.40;16.50;;;;;;;9.51;100.00;101119.67;106100;1254;62328;-82
2024/03/22 08:25:34;;;;;;;27.60;15.50;;;;;;;9.39;100.00;101115.34;105920;1257;77670;-76
2024/03/22 08:28:02;;;;;;;28.40;17.10;;;;;;;9.36;100.00;101115.58;106344;1257;69877;-76
2024/03/22 08:30:38;;;;;;;26.10;15.80;;;;;;;9.40;100.00;101119.55;105975;1260;74174;-76
2024/03/22 08:33:06;;;;;;;26.30;15.60;;;;;;;9.54;100.00;101116.70;105874;1254;62161;-76
2024/03/22 08:35:33;;;;;;;27.10;16.10;;;;;;;9.62;100.00;101118.03;106041;1260;62165;-82
2024/03/22 08:38:01;;;;;;;27.30;16.30;;;;;;;9.61;100.00;101115.20;105992;1255;77692;-76
2024/03/22 08:40:29;;;;;;;27.70;16.20;;;;;;;9.58;100.00;101113.02;105896;1258;69509;-82
2024/03/22 08:42:57;;;;;;;26.50;15.50;;;;;;;9.68;100.00;101114.50;106012;1254;75026;-82
2024/03/22 08:45:24;;;;;;;27.40;15.60;;;;;;;9.74;100.00;101112.45;106105;1254;61957;-82
2024/03/22 08:47:52;;;;;;;28.90;16.90;;;;;;;9.78;100.00;101114.17;106029;1254;61961;-82
2024/03/22 08:50:20;;;;;;;26.60;15.90;;;;;;;9.78;100.00;101107.56;106202;1254;77826;-76
2024/03/22 08:52:48;;;;;;;27.20;16.00;;;;;;;9.77;100.00;101107.51;106024;1255;71140;-82
2024/03/22 08:55:16;;;;;;;28.70;15.40;;;;;;;9.76;100.00;101102.47;105908;1254;75196;-82
2024/03/22 08:57:44;;;;;;;24.80;15.30;;;;;;;9.78;100.00;101104.34;105926;1257;62582;-82
2024/03/22 09:00:24;;;;;;;27.00;14.90;;;;;;;9.81;100.00;101100.33;105871;1257;62567;-82
2024/03/22 09:02:52;;;;;;;26.10;15.80;;;;;;;9.86;100.00;101102.06;105936;1255;77561;-76
2024/03/22 09:05:20;;;;;;;30.90;15.20;;;;;;;9.87;100.00;101105.64;106869;1254;68996;-76
2024/03/22 09:07:48;;;;;;;25.60;15.20;;;;;;;9.87;100.00;101099.63;106131;1255;75128;-81
2024/03/22 09:10:17;;;;;;;26.40;15.60;;;;;;;9.87;100.00;101102.52;105973;1254;62015;-81
2024/03/22 09:12:45;;;;;;;28.20;15.20;;;;;;;9.86;100.00;101100.98;105977;1253;62155;-82
2024/03/22 09:15:12;;;;;;;37.20;16.30;;;;;;;9.90;100.00;101100.75;106102;1255;77142;-76
2024/03/22 09:17:40;;;;;;;27.50;15.40;;;;;;;9.94;100.00;101101.16;106186;1254;67753;-82
2024/03/22 09:20:09;;;;;;;25.70;15.20;;;;;;;10.01;100.00;101101.81;105994;1255;73502;-84
2024/03/22 09:22:38;;;;;;;27.50;15.10;;;;;;;10.10;100.00;101100.05;106290;1253;62380;-77
2024/03/22 09:25:08;;;;;;;27.90;15.70;;;;;;;10.17;100.00;101097.32;106588;1254;62278;-77
2024/03/22 09:27:36;;;;;;;26.70;14.70;;;;;;;10.15;100.00;101094.84;106133;1255;77484;-76
2024/03/22 09:30:05;;;;;;;27.90;15.80;;;;;;;10.09;100.00;101092.72;105832;1254;69941;-76
2024/03/22 09:32:33;;;;;;;28.50;15.00;;;;;;;10.08;100.00;101092.93;105668;1260;74104;-77
2024/03/22 09:35:01;;;;;;;36.00;17.50;;;;;;;10.12;100.00;101092.91;105978;1255;63974;-77
2024/03/22 09:37:28;;;;;;;30.90;15.90;;;;;;;10.23;100.00;101097.75;105870;1254;61982;-82
2024/03/22 09:39:56;;;;;;;29.10;15.30;;;;;;;10.28;100.00;101094.37;105955;1257;76572;-83
2024/03/22 09:42:25;;;;;;;36.20;17.90;;;;;;;10.37;100.00;101095.64;106223;1254;69477;-83
2024/03/22 09:44:53;;;;;;;26.90;16.40;;;;;;;10.46;100.00;101095.43;106859;1259;73750;-82
2024/03/22 09:47:21;;;;;;;27.50;16.00;;;;;;;10.46;100.00;101100.41;106010;1255;62610;-81
2024/03/22 09:49:49;;;;;;;37.80;19.30;;;;;;;10.44;100.00;101093.55;106031;1254;62178;-82
2024/03/22 09:52:19;;;;;;;34.70;18.20;;;;;;;10.50;100.00;101095.69;105964;1257;77616;-76
2024/03/22 09:54:46;;;;;;;33.90;18.00;;;;;;;10.59;100.00;101097.38;105897;1254;71172;-76
2024/03/22 09:57:18;;;;;;;31.00;16.40;;;;;;;10.71;100.00;101092.25;105942;1254;75042;-83
2024/03/22 09:59:46;;;;;;;30.90;16.50;;;;;;;10.72;100.00;101092.43;105938;1260;62175;-76
2024/03/22 10:02:13;;;;;;;45.50;20.30;;;;;;;10.75;100.00;101089.33;106060;1254;61998;-81
2024/03/22 10:04:41;;;;;;;30.60;16.00;;;;;;;10.80;100.00;101086.29;106583;1254;77767;-83
2024/03/22 10:07:10;;;;;;;32.80;18.60;;;;;;;10.89;100.00;101084.20;105975;1257;69295;-75
2024/03/22 10:09:38;;;;;;;31.30;17.50;;;;;;;10.92;100.00;101074.98;106107;1254;74636;-76
2024/03/22 10:12:05;;;;;;;30.00;16.00;;;;;;;10.94;100.00;101075.15;105968;1254;63951;-82
2024/03/22 10:14:33;;;;;;;28.20;16.80;;;;;;;10.97;100.00;101067.98;105887;1253;62488;-76
2024/03/22 10:17:01;;;;;;;29.40;17.60;;;;;;;11.09;100.00;101064.33;106025;1254;77028;-76
2024/03/22 10:19:28;;;;;;;29.10;16.20;;;;;;;11.21;100.00;101058.30;105954;1258;70651;-76
2024/03/22 10:22:00;;;;;;;29.80;16.70;;;;;;;11.30;100.00;101055.54;105934;1254;75366;-76
2024/03/22 10:24:28;;;;;;;30.40;16.00;;;;;;;11.41;100.00;101054.09;105840;1254;62110;-77
2024/03/22 10:26:56;;;;;;;31.10;17.60;;;;;;;11.52;100.00;101048.73;105991;1255;62043;-76
2024/03/22 10:29:24;;;;;;;26.10;15.40;;;;;;;11.66;100.00;101040.23;106199;1257;77867;-82
2024/03/22 10:31:53;;;;;;;29.00;16.30;;;;;;;11.76;100.00;101041.32;105817;1254;70998;-76
2024/03/22 10:34:22;;;;;;;28.20;15.80;;;;;;;11.82;100.00;101036.52;106043;1255;74746;-76
2024/03/22 10:36:50;;;;;;;26.50;14.80;;;;;;;11.87;100.00;101034.88;106015;1254;62162;-82
2024/03/22 10:39:21;;;;;;;26.60;16.00;;;;;;;11.94;100.00;101032.38;105900;1254;62078;-82
2024/03/22 10:41:48;;;;;;;29.10;17.10;;;;;;;11.97;100.00;101034.14;106040;1257;77478;-82
2024/03/22 10:44:17;;;;;;;27.90;16.60;;;;;;;12.02;100.00;101033.09;106714;1254;70827;-82
2024/03/22 10:46:47;;;;;;;26.50;16.80;;;;;;;12.04;100.00;101027.98;105946;1254;74401;-83
2024/03/22 10:49:16;;;;;;;31.90;18.50;;;;;;;12.11;100.00;101022.30;106126;1255;62044;-83
2024/03/22 10:51:46;;;;;;;28.90;17.10;;;;;;;12.19;100.00;101014.93;106058;1254;62376;-83
2024/03/22 10:54:17;;;;;;;30.70;18.90;;;;;;;12.28;100.00;101008.41;106710;1254;75626;-83
2024/03/22 10:56:46;;;;;;;29.60;18.40;;;;;;;12.34;100.00;101003.40;106976;1253;71135;-83
2024/03/22 10:59:19;;;;;;;28.30;18.30;;;;;;;12.35;100.00;101000.92;105849;1259;74726;-77
2024/03/22 11:01:46;;;;;;;33.00;19.80;;;;;;;12.41;100.00;100997.08;106556;1256;61977;-82